Search for airport 
image banner adimage banner adimage banner ad
image banner ad

9PS7 - W S Lee&Sons Inc

Located in Duncansville, United States

ICAO - 9PS7, IATA -

Data provided by Airmate  

General information

Coordinates: N40°26'50" W78°25'44"
Elevation is 1104 feet MSL.
Magnetic variation is -10° East
View others Airports in Pennsylvania

Operational data

Special qualification required
Current time UTC:
Current local time:
Weather at : KAOO - Altoona-Blair County ( 19 km )
METAR: KAOO 071253Z AUTO 02004KT 10SM BKN049 BKN065 OVC090 08/02 A2988 RMK AO2 SLP124 T00830022
TAF: KAOO 071127Z 0712/0812 16006KT P6SM SCT100 BKN250 FM071500 19006KT P6SM -RA OVC050 FM080100 27007KT P6SM BKN035
View NOTAMs / SUP AIP / TFR affecting this airport [VIEW]
Communications frequencies: [VIEW]

Runways:

Airport contact information

Address: Duncansville United States

Satellite view of 9PS7